Time;durP1;ratioP1;P1;durP2;ratioP2;P2;SDS_P1;SDS_P2;PMS_P1;PMS_P2;Temp;Humidity;BMP_temperature;BMP_pressure;BME280_temperature;BME280_humidity;BME280_pressure;Samples;Min_cycle;Max_cycle;Signal;HPM_P1;HPM_P2
2023/07/20 00:01:08;;;;;;;;;;;;;;;;;;5112336;28;19912;-67
2023/07/20 00:03:34;;;;;;;;;;;;;;;;;;5111262;28;20280;-67
2023/07/20 00:06:00;;;;;;;;;;;;;;;;;;5111676;28;20143;-67
2023/07/20 00:08:26;;;;;;;;;;;;;;;;;;5111973;28;20360;-68
2023/07/20 00:11:47;;;;;;;;;;;;;;;;;;5091160;27;19913;-67
2023/07/20 00:16:07;;;;;;;;;;;;;;;;;;5066307;27;2435491;-67
2023/07/20 00:18:33;;;;;;;;;;;;;;;;;;5152566;27;19911;-67
2023/07/20 00:21:02;;;;;;;;;;;;;;;;;;5152864;27;19925;-67
2023/07/20 00:23:28;;;;;;;;;;;;;;;;;;5152876;27;19907;-67
2023/07/20 00:28:15;;;;;;;;;;;;;;;;;;5153306;27;20263;-66
2023/07/20 00:30:41;;;;;;;;;;;;;;;;;;5152999;27;19918;-67
2023/07/20 00:33:07;;;;;;;;;;;;;;;;;;5152505;27;20321;-67
2023/07/20 00:35:33;;;;;;;;;;;;;;;;;;5152885;27;19907;-67
2023/07/20 00:37:59;;;;;;;;;;;;;;;;;;5152841;27;20332;-67
2023/07/20 00:40:25;;;;;;;;;;;;;;;;;;5152360;27;19911;-66
2023/07/20 00:42:51;;;;;;;;;;;;;;;;;;5152688;27;19960;-67
2023/07/20 00:45:53;;;;;;;;;;;;;;;;;;5152608;27;20005;-67
2023/07/20 00:48:19;;;;;;;;;;;;;;;;;;5152957;27;19953;-67
2023/07/20 00:50:46;;;;;;;;;;;;;;;;;;5153242;27;19998;-67
2023/07/20 00:53:12;;;;;;;;;;;;;;;;;;5152978;27;19907;-67
2023/07/20 00:55:38;;;;;;;;;;;;;;;;;;5152849;27;20022;-67
2023/07/20 00:58:03;;;;;;;;;;;;;;;;;;5152795;27;19960;-66
2023/07/20 01:02:51;;;;;;;;;;;;;;;;;;5073283;27;2238580;-67
2023/07/20 01:05:17;;;;;;;;;;;;;;;;;;5152927;27;20378;-67
2023/07/20 01:07:43;;;;;;;;;;;;;;;;;;5152458;27;20010;-67
2023/07/20 01:10:09;;;;;;;;;;;;;;;;;;5152832;27;20320;-67
2023/07/20 01:12:35;;;;;;;;;;;;;;;;;;5152804;27;19914;-67
2023/07/20 01:15:01;;;;;;;;;;;;;;;;;;5152289;27;19911;-67
2023/07/20 01:17:27;;;;;;;;;;;;;;;;;;5152898;27;19914;-67
2023/07/20 01:19:53;;;;;;;;;;;;;;;;;;5134147;27;19959;-67
2023/07/20 01:22:19;;;;;;;;;;;;;;;;;;5152141;27;19916;-67
2023/07/20 01:24:45;;;;;;;;;;;;;;;;;;5152681;27;20387;-66
2023/07/20 01:28:55;;;;;;;;;;;;;;;;;;5111832;27;19916;-67
2023/07/20 01:31:22;;;;;;;;;;;;;;;;;;5111751;28;19943;-67
2023/07/20 01:33:48;;;;;;;;;;;;;;;;;;5111705;28;19915;-68
2023/07/20 01:36:14;;;;;;;;;;;;;;;;;;5111390;28;19911;-69
2023/07/20 01:42:13;;;;;;;;;;;;;;;;;;5173586;27;20030;-67
2023/07/20 01:44:39;;;;;;;;;;;;;;;;;;5173783;27;20327;-68
2023/07/20 01:47:05;;;;;;;;;;;;;;;;;;5173695;27;19907;-68
2023/07/20 01:49:31;;;;;;;;;;;;;;;;;;5173280;27;19917;-67
2023/07/20 01:51:57;;;;;;;;;;;;;;;;;;5173614;27;20050;-67
2023/07/20 01:56:54;;;;;;;;;;;;;;;;;;5091400;27;20300;-69
2023/07/20 01:59:19;;;;;;;;;;;;;;;;;;5090097;28;20284;-68
2023/07/20 02:03:26;;;;;;;;;;;;;;;;;;5111754;27;19915;-68
2023/07/20 02:05:52;;;;;;;;;;;;;;;;;;5111815;28;19912;-67
2023/07/20 02:10:04;;;;;;;;;;;;;;;;;;5173464;27;19918;-68
2023/07/20 02:12:40;;;;;;;;;;;;;;;;;;5111799;27;19916;-68
2023/07/20 02:16:16;;;;;;;;;;;;;;;;;;5111869;27;19912;-69
2023/07/20 02:18:42;;;;;;;;;;;;;;;;;;5111345;28;20003;-68
2023/07/20 02:21:08;;;;;;;;;;;;;;;;;;5111863;28;19912;-67
2023/07/20 02:23:34;;;;;;;;;;;;;;;;;;5111689;28;19908;-68
2023/07/20 02:26:00;;;;;;;;;;;;;;;;;;5111306;28;19908;-68
2023/07/20 02:28:26;;;;;;;;;;;;;;;;;;5111614;28;19989;-68
2023/07/20 02:33:00;;;;;;;;;;;;;;;;;;5111269;27;20368;-66
2023/07/20 02:39:28;;;;;;;;;;;;;;;;;;5091325;27;19916;-67
2023/07/20 02:41:54;;;;;;;;;;;;;;;;;;5091555;28;20007;-67
2023/07/20 02:46:00;;;;;;;;;;;;;;;;;;5091175;27;19922;-67
2023/07/20 02:48:26;;;;;;;;;;;;;;;;;;5091369;28;20002;-67
2023/07/20 02:50:52;;;;;;;;;;;;;;;;;;5091492;28;19908;-67
2023/07/20 02:53:18;;;;;;;;;;;;;;;;;;5091030;28;20091;-67
2023/07/20 02:55:44;;;;;;;;;;;;;;;;;;5091245;28;19952;-67
2023/07/20 02:58:10;;;;;;;;;;;;;;;;;;5091221;28;19920;-67
2023/07/20 03:00:36;;;;;;;;;;;;;;;;;;5091037;28;19912;-67
2023/07/20 03:06:41;;;;;;;;;;;;;;;;;;5091264;27;20372;-67
2023/07/20 03:09:07;;;;;;;;;;;;;;;;;;5091380;28;20002;-67
2023/07/20 03:13:46;;;;;;;;;;;;;;;;;;5091713;28;19916;-67
2023/07/20 03:18:45;;;;;;;;;;;;;;;;;;5153122;27;20450;-67
2023/07/20 03:25:49;;;;;;;;;;;;;;;;;;5092249;27;20360;-67
2023/07/20 03:34:05;;;;;;;;;;;;;;;;;;5091360;27;19935;-67
2023/07/20 03:36:31;;;;;;;;;;;;;;;;;;5091049;28;19951;-67
2023/07/20 03:41:23;;;;;;;;;;;;;;;;;;5174582;27;19915;-67
2023/07/20 03:43:50;;;;;;;;;;;;;;;;;;5173429;27;19993;-67
2023/07/20 03:46:34;;;;;;;;;;;;;;;;;;5112317;27;19922;-67
2023/07/20 03:49:00;;;;;;;;;;;;;;;;;;5111468;28;20003;-67
2023/07/20 03:52:38;;;;;;;;;;;;;;;;;;5091487;28;19923;-67
2023/07/20 03:57:33;;;;;;;;;;;;;;;;;;5091229;28;19923;-67
2023/07/20 04:00:26;;;;;;;;;;;;;;;;;;5112214;27;19916;-67
2023/07/20 04:02:52;;;;;;;;;;;;;;;;;;5111355;28;20010;-67
2023/07/20 04:05:18;;;;;;;;;;;;;;;;;;5111740;28;20433;-67
2023/07/20 04:07:44;;;;;;;;;;;;;;;;;;5110431;28;19912;-67
2023/07/20 04:14:35;;;;;;;;;;;;;;;;;;5091686;27;19931;-66
2023/07/20 04:17:01;;;;;;;;;;;;;;;;;;5090972;28;19999;-67
2023/07/20 04:19:27;;;;;;;;;;;;;;;;;;5091326;28;19962;-67
2023/07/20 04:26:15;;;;;;;;;;;;;;;;;;5091744;28;20291;-67
2023/07/20 04:28:44;;;;;;;;;;;;;;;;;;5091416;28;19998;-67
2023/07/20 04:31:11;;;;;;;;;;;;;;;;;;5090969;28;19953;-67
2023/07/20 04:33:37;;;;;;;;;;;;;;;;;;5091300;28;19908;-67
2023/07/20 04:37:15;;;;;;;;;;;;;;;;;;5091617;27;19916;-67
2023/07/20 04:40:40;;;;;;;;;;;;;;;;;;5111742;27;19916;-66
2023/07/20 04:43:06;;;;;;;;;;;;;;;;;;5111745;28;20014;-67
2023/07/20 04:46:42;;;;;;;;;;;;;;;;;;5091024;28;19912;-67
2023/07/20 04:49:48;;;;;;;;;;;;;;;;;;5112574;27;20226;-67
2023/07/20 04:52:14;;;;;;;;;;;;;;;;;;5111386;28;20011;-67
2023/07/20 04:54:40;;;;;;;;;;;;;;;;;;5111692;28;19915;-68
2023/07/20 04:57:10;;;;;;;;;;;;;;;;;;5111674;28;19986;-68
2023/07/20 05:00:51;;;;;;;;;;;;;;;;;;5091171;28;19919;-67
2023/07/20 05:05:28;;;;;;;;;;;;;;;;;;5112597;27;19938;-67
2023/07/20 05:07:54;;;;;;;;;;;;;;;;;;5111438;28;19957;-67
2023/07/20 05:10:20;;;;;;;;;;;;;;;;;;5111724;28;19931;-67
2023/07/20 05:12:46;;;;;;;;;;;;;;;;;;5111690;28;20306;-67
2023/07/20 05:15:12;;;;;;;;;;;;;;;;;;5111214;28;19908;-67
2023/07/20 05:17:39;;;;;;;;;;;;;;;;;;5111604;28;19912;-67
2023/07/20 05:20:05;;;;;;;;;;;;;;;;;;5111145;28;19916;-67
2023/07/20 05:22:31;;;;;;;;;;;;;;;;;;5111401;28;19908;-67
2023/07/20 05:24:57;;;;;;;;;;;;;;;;;;5111371;28;20073;-68
2023/07/20 05:27:23;;;;;;;;;;;;;;;;;;5111031;28;19908;-68
2023/07/20 05:31:30;;;;;;;;;;;;;;;;;;5111932;27;19916;-67
2023/07/20 05:33:56;;;;;;;;;;;;;;;;;;5111833;28;19958;-67
2023/07/20 05:37:39;;;;;;;;;;;;;;;;;;5091536;27;19923;-66
2023/07/20 05:43:14;;;;;;;;;;;;;;;;;;5111416;27;19916;-67
2023/07/20 05:45:40;;;;;;;;;;;;;;;;;;5111675;28;19912;-67
2023/07/20 05:48:06;;;;;;;;;;;;;;;;;;5111720;28;20029;-67
2023/07/20 05:50:32;;;;;;;;;;;;;;;;;;5111718;28;20047;-67
2023/07/20 05:52:58;;;;;;;;;;;;;;;;;;5111589;28;20429;-67
2023/07/20 05:55:24;;;;;;;;;;;;;;;;;;5111136;28;19916;-66
2023/07/20 05:57:50;;;;;;;;;;;;;;;;;;5111641;28;20003;-67
2023/07/20 06:00:18;;;;;;;;;;;;;;;;;;5111490;28;19915;-67
2023/07/20 06:02:45;;;;;;;;;;;;;;;;;;5110958;28;20288;-67
2023/07/20 06:05:11;;;;;;;;;;;;;;;;;;5111476;28;20374;-67
2023/07/20 06:10:08;;;;;;;;;;;;;;;;;;5091071;27;19926;-67
2023/07/20 06:12:34;;;;;;;;;;;;;;;;;;5091387;28;19973;-67
2023/07/20 06:16:03;;;;;;;;;;;;;;;;;;5065803;27;2464728;-67
2023/07/20 06:22:02;;;;;;;;;;;;;;;;;;5091791;27;19923;-67
2023/07/20 06:24:28;;;;;;;;;;;;;;;;;;5091004;28;20007;-67
2023/07/20 06:26:54;;;;;;;;;;;;;;;;;;5091579;28;19954;-67
2023/07/20 06:29:20;;;;;;;;;;;;;;;;;;5091216;28;20060;-67
2023/07/20 06:31:46;;;;;;;;;;;;;;;;;;5090745;28;20276;-67
2023/07/20 06:34:12;;;;;;;;;;;;;;;;;;5090965;28;20356;-67
2023/07/20 06:39:00;;;;;;;;;;;;;;;;;;5045610;27;2452055;-67
2023/07/20 06:41:26;;;;;;;;;;;;;;;;;;5132268;28;19912;-67
2023/07/20 06:43:57;;;;;;;;;;;;;;;;;;5132169;28;19919;-67
2023/07/20 06:46:23;;;;;;;;;;;;;;;;;;5131742;28;19953;-66
2023/07/20 06:48:49;;;;;;;;;;;;;;;;;;5132122;28;19907;-67
2023/07/20 06:51:15;;;;;;;;;;;;;;;;;;5132037;28;19947;-67
2023/07/20 06:53:41;;;;;;;;;;;;;;;;;;5131596;28;19919;-67
2023/07/20 06:56:07;;;;;;;;;;;;;;;;;;5132000;28;19960;-66
2023/07/20 07:01:33;;;;;;;;;;;;;;;;;;5111654;28;20381;-67
2023/07/20 07:03:59;;;;;;;;;;;;;;;;;;5111618;28;19943;-67
2023/07/20 07:06:27;;;;;;;;;;;;;;;;;;5111580;28;20376;-67
2023/07/20 07:08:53;;;;;;;;;;;;;;;;;;5111578;28;19915;-67
2023/07/20 07:11:19;;;;;;;;;;;;;;;;;;5111503;28;19914;-67
2023/07/20 07:13:46;;;;;;;;;;;;;;;;;;5111083;28;19908;-67
2023/07/20 07:16:14;;;;;;;;;;;;;;;;;;5111347;28;19919;-68
2023/07/20 07:18:40;;;;;;;;;;;;;;;;;;5111811;28;19908;-66
2023/07/20 07:21:06;;;;;;;;;;;;;;;;;;5110927;28;19915;-66
2023/07/20 07:23:32;;;;;;;;;;;;;;;;;;5111338;28;19918;-67
2023/07/20 07:25:58;;;;;;;;;;;;;;;;;;5111366;28;19915;-68
2023/07/20 07:28:24;;;;;;;;;;;;;;;;;;5110920;28;19908;-67
2023/07/20 07:30:50;;;;;;;;;;;;;;;;;;5111146;28;20373;-68
2023/07/20 07:33:16;;;;;;;;;;;;;;;;;;5111121;28;19908;-69
2023/07/20 07:35:42;;;;;;;;;;;;;;;;;;5110781;28;20387;-69
2023/07/20 07:38:08;;;;;;;;;;;;;;;;;;5110925;28;19916;-68
2023/07/20 07:40:34;;;;;;;;;;;;;;;;;;5110984;28;19908;-66
2023/07/20 07:43:00;;;;;;;;;;;;;;;;;;5111018;28;19916;-66
2023/07/20 07:45:26;;;;;;;;;;;;;;;;;;5110874;28;19912;-67
2023/07/20 07:47:52;;;;;;;;;;;;;;;;;;5110654;28;20391;-67
2023/07/20 07:50:18;;;;;;;;;;;;;;;;;;5110801;28;19908;-67
2023/07/20 07:52:44;;;;;;;;;;;;;;;;;;5110681;28;20021;-67
2023/07/20 07:55:10;;;;;;;;;;;;;;;;;;5110374;28;19998;-66
2023/07/20 07:57:36;;;;;;;;;;;;;;;;;;5110358;28;19952;-67
2023/07/20 08:00:03;;;;;;;;;;;;;;;;;;5111174;28;19912;-67
2023/07/20 08:02:29;;;;;;;;;;;;;;;;;;5110194;28;20319;-67
2023/07/20 08:05:20;;;;;;;;;;;;;;;;;;5091632;27;19916;-67
2023/07/20 08:07:46;;;;;;;;;;;;;;;;;;5091474;28;19918;-67
2023/07/20 08:10:12;;;;;;;;;;;;;;;;;;5090824;28;19908;-67
2023/07/20 08:12:38;;;;;;;;;;;;;;;;;;5091648;28;19974;-67
2023/07/20 08:15:04;;;;;;;;;;;;;;;;;;5091302;28;19924;-67
2023/07/20 08:17:31;;;;;;;;;;;;;;;;;;5090711;28;19915;-67
2023/07/20 08:19:58;;;;;;;;;;;;;;;;;;5091102;28;19920;-67
2023/07/20 08:22:24;;;;;;;;;;;;;;;;;;5091024;28;19908;-67
2023/07/20 08:24:51;;;;;;;;;;;;;;;;;;5090546;28;19977;-67
2023/07/20 08:27:37;;;;;;;;;;;;;;;;;;5090892;28;19909;-67
2023/07/20 08:30:04;;;;;;;;;;;;;;;;;;5090556;28;19915;-67
2023/07/20 08:32:30;;;;;;;;;;;;;;;;;;5090904;28;19916;-67
2023/07/20 08:34:56;;;;;;;;;;;;;;;;;;5090884;28;20313;-68
2023/07/20 08:37:22;;;;;;;;;;;;;;;;;;5089273;28;19915;-67
2023/07/20 08:39:48;;;;;;;;;;;;;;;;;;5090787;28;19961;-68
2023/07/20 08:42:14;;;;;;;;;;;;;;;;;;5090698;28;19913;-68
2023/07/20 08:44:40;;;;;;;;;;;;;;;;;;5089192;28;19923;-68
2023/07/20 08:47:07;;;;;;;;;;;;;;;;;;5090654;28;19945;-68
2023/07/20 08:49:33;;;;;;;;;;;;;;;;;;5090539;28;19962;-68
2023/07/20 08:51:58;;;;;;;;;;;;;;;;;;5090144;28;19909;-68
2023/07/20 08:54:24;;;;;;;;;;;;;;;;;;5090785;28;19999;-68
2023/07/20 08:56:50;;;;;;;;;;;;;;;;;;5091199;28;20386;-67
2023/07/20 08:59:16;;;;;;;;;;;;;;;;;;5090094;28;20265;-68
2023/07/20 09:01:42;;;;;;;;;;;;;;;;;;5090315;28;19912;-68
2023/07/20 09:04:08;;;;;;;;;;;;;;;;;;5100823;28;19967;-67
2023/07/20 09:06:34;;;;;;;;;;;;;;;;;;5110217;28;19912;-67
2023/07/20 09:09:00;;;;;;;;;;;;;;;;;;5110594;28;19954;-68
2023/07/20 09:11:26;;;;;;;;;;;;;;;;;;5110528;28;19915;-68
2023/07/20 09:13:52;;;;;;;;;;;;;;;;;;5110081;28;19908;-68
2023/07/20 09:16:18;;;;;;;;;;;;;;;;;;5098817;28;19914;-68
2023/07/20 09:18:44;;;;;;;;;;;;;;;;;;5097006;28;19922;-68
2023/07/20 09:23:55;;;;;;;;;;;;;;;;;;5096642;28;20375;-68
2023/07/20 09:26:21;;;;;;;;;;;;;;;;;;5096212;28;19908;-67
2023/07/20 09:28:47;;;;;;;;;;;;;;;;;;5096321;28;20333;-68
2023/07/20 09:31:13;;;;;;;;;;;;;;;;;;5096354;28;19915;-69
2023/07/20 09:33:39;;;;;;;;;;;;;;;;;;5096033;28;20308;-68
2023/07/20 09:36:05;;;;;;;;;;;;;;;;;;5094458;28;20007;-69
2023/07/20 09:38:31;;;;;;;;;;;;;;;;;;5094359;28;19916;-68
2023/07/20 09:40:57;;;;;;;;;;;;;;;;;;5093891;28;19953;-68
2023/07/20 09:43:22;;;;;;;;;;;;;;;;;;5094947;28;19912;-68
2023/07/20 09:45:49;;;;;;;;;;;;;;;;;;5095947;28;19923;-68
2023/07/20 09:48:15;;;;;;;;;;;;;;;;;;5095186;28;19916;-68
2023/07/20 09:50:44;;;;;;;;;;;;;;;;;;5094728;28;20257;-68
2023/07/20 09:53:10;;;;;;;;;;;;;;;;;;5094111;28;19919;-68
2023/07/20 09:55:36;;;;;;;;;;;;;;;;;;5093538;28;19908;-68
2023/07/20 09:58:02;;;;;;;;;;;;;;;;;;5094026;28;19915;-68
2023/07/20 10:00:27;;;;;;;;;;;;;;;;;;5094037;28;19916;-70
2023/07/20 10:02:53;;;;;;;;;;;;;;;;;;5094604;28;19997;-67
2023/07/20 10:05:19;;;;;;;;;;;;;;;;;;5095876;28;19924;-68
2023/07/20 10:07:46;;;;;;;;;;;;;;;;;;5095906;28;19908;-68
2023/07/20 10:10:12;;;;;;;;;;;;;;;;;;5094416;28;20008;-68
2023/07/20 10:12:38;;;;;;;;;;;;;;;;;;5095422;28;20345;-68
2023/07/20 10:15:04;;;;;;;;;;;;;;;;;;5077278;28;19947;-68
2023/07/20 10:17:30;;;;;;;;;;;;;;;;;;5095182;28;20317;-68
2023/07/20 10:19:56;;;;;;;;;;;;;;;;;;5095595;28;20276;-68
2023/07/20 10:22:22;;;;;;;;;;;;;;;;;;5077005;28;19915;-68
2023/07/20 10:24:48;;;;;;;;;;;;;;;;;;5095353;28;19916;-68
2023/07/20 10:27:14;;;;;;;;;;;;;;;;;;5094780;28;19908;-68
2023/07/20 10:29:40;;;;;;;;;;;;;;;;;;5094978;28;20292;-68
2023/07/20 10:32:06;;;;;;;;;;;;;;;;;;5095401;28;19908;-68
2023/07/20 10:34:32;;;;;;;;;;;;;;;;;;5095260;28;20002;-68
2023/07/20 10:36:58;;;;;;;;;;;;;;;;;;5094824;28;19908;-68
2023/07/20 10:39:24;;;;;;;;;;;;;;;;;;5077321;28;19908;-68
2023/07/20 10:41:50;;;;;;;;;;;;;;;;;;5095180;28;19908;-67
2023/07/20 10:44:16;;;;;;;;;;;;;;;;;;5094736;28;19923;-67
2023/07/20 10:46:43;;;;;;;;;;;;;;;;;;5095138;28;19994;-67
2023/07/20 10:49:09;;;;;;;;;;;;;;;;;;5095103;28;19953;-67
2023/07/20 10:51:35;;;;;;;;;;;;;;;;;;5094633;28;19909;-67
2023/07/20 10:54:01;;;;;;;;;;;;;;;;;;5094952;28;19909;-68
2023/07/20 10:56:30;;;;;;;;;;;;;;;;;;5076731;28;20368;-68
2023/07/20 10:58:56;;;;;;;;;;;;;;;;;;5094477;28;19908;-67
2023/07/20 11:01:22;;;;;;;;;;;;;;;;;;5095031;28;19961;-67
2023/07/20 11:03:50;;;;;;;;;;;;;;;;;;5094647;28;19971;-68
2023/07/20 11:06:16;;;;;;;;;;;;;;;;;;5094406;28;19915;-67
2023/07/20 11:08:42;;;;;;;;;;;;;;;;;;5094683;28;20372;-67
2023/07/20 11:11:08;;;;;;;;;;;;;;;;;;5094697;28;19908;-68
2023/07/20 11:13:34;;;;;;;;;;;;;;;;;;5094206;28;19908;-68
2023/07/20 11:16:00;;;;;;;;;;;;;;;;;;5094509;28;19916;-68
2023/07/20 11:18:26;;;;;;;;;;;;;;;;;;5076422;28;20291;-68
2023/07/20 11:20:52;;;;;;;;;;;;;;;;;;5094042;28;20245;-68
2023/07/20 11:23:18;;;;;;;;;;;;;;;;;;5094265;28;19986;-67
2023/07/20 11:25:44;;;;;;;;;;;;;;;;;;5093961;28;19951;-67
2023/07/20 11:28:10;;;;;;;;;;;;;;;;;;5094315;28;19916;-67
2023/07/20 11:30:36;;;;;;;;;;;;;;;;;;5094340;28;20257;-67
2023/07/20 11:33:02;;;;;;;;;;;;;;;;;;5094268;28;19919;-67
2023/07/20 11:35:28;;;;;;;;;;;;;;;;;;5094242;28;19912;-67
2023/07/20 11:37:54;;;;;;;;;;;;;;;;;;5094006;28;19954;-70
2023/07/20 11:40:20;;;;;;;;;;;;;;;;;;5093705;28;19956;-68
2023/07/20 11:42:46;;;;;;;;;;;;;;;;;;5094086;28;19912;-69
2023/07/20 11:45:12;;;;;;;;;;;;;;;;;;5094324;28;19923;-68
2023/07/20 11:47:38;;;;;;;;;;;;;;;;;;5093614;28;19952;-68
2023/07/20 11:50:04;;;;;;;;;;;;;;;;;;5094094;28;19998;-68
2023/07/20 11:52:29;;;;;;;;;;;;;;;;;;5093970;28;19927;-68
2023/07/20 11:54:55;;;;;;;;;;;;;;;;;;5093801;28;19914;-68
2023/07/20 11:57:21;;;;;;;;;;;;;;;;;;5094366;28;20356;-69
2023/07/20 11:59:47;;;;;;;;;;;;;;;;;;5093951;28;19987;-69
2023/07/20 12:02:13;;;;;;;;;;;;;;;;;;5093511;28;19908;-69
2023/07/20 12:04:39;;;;;;;;;;;;;;;;;;5093207;28;20408;-66
2023/07/20 12:07:05;;;;;;;;;;;;;;;;;;5094129;28;19912;-67
2023/07/20 12:09:31;;;;;;;;;;;;;;;;;;5093504;28;19953;-66
2023/07/20 12:11:57;;;;;;;;;;;;;;;;;;5075704;28;20360;-67
2023/07/20 12:14:23;;;;;;;;;;;;;;;;;;5093734;28;19908;-68
2023/07/20 12:16:49;;;;;;;;;;;;;;;;;;5093484;28;19959;-67
2023/07/20 12:19:15;;;;;;;;;;;;;;;;;;5093904;28;20281;-67
2023/07/20 12:21:42;;;;;;;;;;;;;;;;;;5093791;28;19914;-66
2023/07/20 12:24:09;;;;;;;;;;;;;;;;;;5093377;28;19923;-67
2023/07/20 12:26:35;;;;;;;;;;;;;;;;;;5093805;28;20352;-68
2023/07/20 12:29:01;;;;;;;;;;;;;;;;;;5093442;28;19908;-67
2023/07/20 12:31:27;;;;;;;;;;;;;;;;;;5093741;28;19909;-67
2023/07/20 12:33:53;;;;;;;;;;;;;;;;;;5093700;28;19908;-66
2023/07/20 12:36:19;;;;;;;;;;;;;;;;;;5075297;28;20334;-67
2023/07/20 12:38:45;;;;;;;;;;;;;;;;;;5093587;28;19908;-66
2023/07/20 12:41:13;;;;;;;;;;;;;;;;;;5093625;28;19908;-68
2023/07/20 12:43:39;;;;;;;;;;;;;;;;;;5093127;28;20288;-67
2023/07/20 12:46:05;;;;;;;;;;;;;;;;;;5093745;28;19915;-69
2023/07/20 12:48:31;;;;;;;;;;;;;;;;;;5093546;28;19908;-67
2023/07/20 12:50:58;;;;;;;;;;;;;;;;;;5094975;28;19908;-67
2023/07/20 12:53:24;;;;;;;;;;;;;;;;;;5097364;28;19999;-68
2023/07/20 12:55:50;;;;;;;;;;;;;;;;;;5097225;28;20401;-68
2023/07/20 12:58:16;;;;;;;;;;;;;;;;;;5097270;28;19908;-68
2023/07/20 13:00:43;;;;;;;;;;;;;;;;;;5097384;28;19907;-68
2023/07/20 13:03:08;;;;;;;;;;;;;;;;;;5096845;28;19908;-69
2023/07/20 13:05:35;;;;;;;;;;;;;;;;;;5096946;28;20303;-68
2023/07/20 13:08:01;;;;;;;;;;;;;;;;;;5097196;28;20275;-68
2023/07/20 13:10:27;;;;;;;;;;;;;;;;;;5097102;28;20003;-68
2023/07/20 13:12:53;;;;;;;;;;;;;;;;;;5096579;28;20326;-68
2023/07/20 13:15:19;;;;;;;;;;;;;;;;;;5096971;28;19908;-66
2023/07/20 13:17:45;;;;;;;;;;;;;;;;;;5096728;28;19915;-66
2023/07/20 13:20:11;;;;;;;;;;;;;;;;;;5096509;28;19908;-67
2023/07/20 13:22:37;;;;;;;;;;;;;;;;;;5096672;28;20313;-67
2023/07/20 13:25:03;;;;;;;;;;;;;;;;;;5096653;28;19923;-67
2023/07/20 13:27:30;;;;;;;;;;;;;;;;;;5096528;28;20300;-68
2023/07/20 13:29:56;;;;;;;;;;;;;;;;;;5096470;28;19908;-67
2023/07/20 13:32:22;;;;;;;;;;;;;;;;;;5096138;28;19915;-67
2023/07/20 13:34:48;;;;;;;;;;;;;;;;;;5096509;28;20003;-66
2023/07/20 13:37:15;;;;;;;;;;;;;;;;;;5096381;28;20353;-67
2023/07/20 13:39:41;;;;;;;;;;;;;;;;;;5095935;28;19908;-68
2023/07/20 13:42:10;;;;;;;;;;;;;;;;;;5096314;28;20383;-68
2023/07/20 13:44:37;;;;;;;;;;;;;;;;;;5096227;28;20379;-68
2023/07/20 13:47:05;;;;;;;;;;;;;;;;;;5096079;28;19912;-68
2023/07/20 13:49:31;;;;;;;;;;;;;;;;;;5096236;28;19948;-68
2023/07/20 13:51:57;;;;;;;;;;;;;;;;;;5096239;28;20281;-68
2023/07/20 13:54:23;;;;;;;;;;;;;;;;;;5095743;28;19915;-68
2023/07/20 13:56:49;;;;;;;;;;;;;;;;;;5095978;28;19993;-67
2023/07/20 13:59:15;;;;;;;;;;;;;;;;;;5095998;28;19908;-66
2023/07/20 14:01:41;;;;;;;;;;;;;;;;;;5095427;28;19961;-68
2023/07/20 14:04:07;;;;;;;;;;;;;;;;;;5095833;28;19924;-67
2023/07/20 14:06:33;;;;;;;;;;;;;;;;;;5095510;28;19908;-67
2023/07/20 14:08:59;;;;;;;;;;;;;;;;;;5095510;28;19997;-70
2023/07/20 14:11:25;;;;;;;;;;;;;;;;;;5095705;28;20349;-68
2023/07/20 14:13:52;;;;;;;;;;;;;;;;;;5095794;28;19944;-69
2023/07/20 14:16:18;;;;;;;;;;;;;;;;;;5095361;28;19908;-67
2023/07/20 14:18:47;;;;;;;;;;;;;;;;;;5095685;28;19953;-67
2023/07/20 14:21:13;;;;;;;;;;;;;;;;;;5095556;28;19908;-68
2023/07/20 14:23:39;;;;;;;;;;;;;;;;;;5076782;28;19935;-68
2023/07/20 14:26:05;;;;;;;;;;;;;;;;;;5095313;28;19908;-67
2023/07/20 14:28:31;;;;;;;;;;;;;;;;;;5095264;28;19909;-70
2023/07/20 14:30:57;;;;;;;;;;;;;;;;;;5095302;28;19915;-68
2023/07/20 14:33:23;;;;;;;;;;;;;;;;;;5095321;28;20363;-67
2023/07/20 14:35:49;;;;;;;;;;;;;;;;;;5094738;28;20448;-68
2023/07/20 14:38:15;;;;;;;;;;;;;;;;;;5095208;28;19915;-67
2023/07/20 14:40:41;;;;;;;;;;;;;;;;;;5095253;28;20389;-67
2023/07/20 14:43:07;;;;;;;;;;;;;;;;;;5094805;28;19927;-68
2023/07/20 14:45:33;;;;;;;;;;;;;;;;;;5095048;28;19916;-68
2023/07/20 14:47:59;;;;;;;;;;;;;;;;;;5095088;28;19914;-69
2023/07/20 14:50:25;;;;;;;;;;;;;;;;;;5094789;28;19944;-68
2023/07/20 14:52:51;;;;;;;;;;;;;;;;;;5094987;28;20340;-67
2023/07/20 14:55:18;;;;;;;;;;;;;;;;;;5094880;28;19977;-68
2023/07/20 14:57:44;;;;;;;;;;;;;;;;;;5094510;28;19908;-68
2023/07/20 15:00:10;;;;;;;;;;;;;;;;;;5094877;28;19957;-69
2023/07/20 15:02:37;;;;;;;;;;;;;;;;;;5094673;28;19908;-69
2023/07/20 15:05:03;;;;;;;;;;;;;;;;;;5094075;28;19981;-69
2023/07/20 15:07:28;;;;;;;;;;;;;;;;;;5094545;28;19915;-69
2023/07/20 15:09:54;;;;;;;;;;;;;;;;;;5094757;28;19908;-69
2023/07/20 15:12:20;;;;;;;;;;;;;;;;;;5094243;28;19908;-68
2023/07/20 15:14:46;;;;;;;;;;;;;;;;;;5094158;28;19915;-69
2023/07/20 15:17:12;;;;;;;;;;;;;;;;;;5094575;28;19999;-69
2023/07/20 15:19:38;;;;;;;;;;;;;;;;;;5094197;28;19953;-69
2023/07/20 15:22:04;;;;;;;;;;;;;;;;;;5094535;28;19908;-69
2023/07/20 15:24:30;;;;;;;;;;;;;;;;;;5094337;28;19997;-69
2023/07/20 15:26:57;;;;;;;;;;;;;;;;;;5094044;28;20360;-69
2023/07/20 15:29:23;;;;;;;;;;;;;;;;;;5094367;28;19908;-69
2023/07/20 15:31:49;;;;;;;;;;;;;;;;;;5094213;28;20293;-69
2023/07/20 15:34:15;;;;;;;;;;;;;;;;;;5094247;28;19961;-68
2023/07/20 15:36:41;;;;;;;;;;;;;;;;;;5094827;28;20356;-69
2023/07/20 15:39:07;;;;;;;;;;;;;;;;;;5093837;28;20005;-67
2023/07/20 15:41:33;;;;;;;;;;;;;;;;;;5094150;28;19908;-69
2023/07/20 15:43:59;;;;;;;;;;;;;;;;;;5094103;28;20334;-69
2023/07/20 15:46:25;;;;;;;;;;;;;;;;;;5094155;28;19908;-67
2023/07/20 15:48:51;;;;;;;;;;;;;;;;;;5094097;28;19948;-67
2023/07/20 15:51:18;;;;;;;;;;;;;;;;;;5094042;28;19909;-68
2023/07/20 15:53:44;;;;;;;;;;;;;;;;;;5093598;28;19916;-68
2023/07/20 15:56:10;;;;;;;;;;;;;;;;;;5093979;28;19912;-67
2023/07/20 15:58:36;;;;;;;;;;;;;;;;;;5093971;28;19908;-67
2023/07/20 16:01:02;;;;;;;;;;;;;;;;;;5093573;28;19908;-68
2023/07/20 16:03:28;;;;;;;;;;;;;;;;;;5092510;28;19920;-68
2023/07/20 16:05:54;;;;;;;;;;;;;;;;;;5093892;28;19908;-68
2023/07/20 16:08:19;;;;;;;;;;;;;;;;;;5093487;28;20368;-69
2023/07/20 16:10:45;;;;;;;;;;;;;;;;;;5094072;28;20357;-68
2023/07/20 16:13:11;;;;;;;;;;;;;;;;;;5093784;28;19922;-67
2023/07/20 16:15:37;;;;;;;;;;;;;;;;;;5093388;28;19908;-66
2023/07/20 16:18:03;;;;;;;;;;;;;;;;;;5093730;28;19967;-67
2023/07/20 16:20:30;;;;;;;;;;;;;;;;;;5093746;28;20163;-66
2023/07/20 16:22:56;;;;;;;;;;;;;;;;;;5093264;28;19908;-67
2023/07/20 16:25:21;;;;;;;;;;;;;;;;;;5094462;28;19920;-67
2023/07/20 16:27:47;;;;;;;;;;;;;;;;;;5097735;28;19950;-67
2023/07/20 16:30:14;;;;;;;;;;;;;;;;;;5097297;28;19968;-68
2023/07/20 16:32:41;;;;;;;;;;;;;;;;;;5097662;28;20372;-68
2023/07/20 16:35:07;;;;;;;;;;;;;;;;;;5097489;28;19919;-68
2023/07/20 16:37:33;;;;;;;;;;;;;;;;;;5097515;28;20364;-68
2023/07/20 16:40:00;;;;;;;;;;;;;;;;;;5097648;28;19908;-68
2023/07/20 16:42:26;;;;;;;;;;;;;;;;;;5097134;28;19909;-68
2023/07/20 16:44:52;;;;;;;;;;;;;;;;;;5097402;28;19916;-67
2023/07/20 16:47:18;;;;;;;;;;;;;;;;;;5097460;28;20326;-67
2023/07/20 16:49:44;;;;;;;;;;;;;;;;;;5097509;28;19909;-67
2023/07/20 16:52:10;;;;;;;;;;;;;;;;;;5097279;28;19919;-67
2023/07/20 16:54:36;;;;;;;;;;;;;;;;;;5097556;28;19950;-67
2023/07/20 16:57:02;;;;;;;;;;;;;;;;;;5096792;28;19908;-67
2023/07/20 16:59:29;;;;;;;;;;;;;;;;;;5097214;28;19908;-67
2023/07/20 17:01:54;;;;;;;;;;;;;;;;;;5097091;28;19955;-67
2023/07/20 17:04:20;;;;;;;;;;;;;;;;;;5095301;28;20321;-67
2023/07/20 17:06:47;;;;;;;;;;;;;;;;;;5097095;28;19908;-67
2023/07/20 17:09:14;;;;;;;;;;;;;;;;;;5096993;28;20351;-67
2023/07/20 17:11:40;;;;;;;;;;;;;;;;;;5096818;28;19912;-68
2023/07/20 17:14:06;;;;;;;;;;;;;;;;;;5096842;28;19908;-67
2023/07/20 17:16:31;;;;;;;;;;;;;;;;;;5096893;28;19908;-67
2023/07/20 17:18:57;;;;;;;;;;;;;;;;;;5096520;28;19908;-68
2023/07/20 17:21:23;;;;;;;;;;;;;;;;;;5096900;28;19949;-67
2023/07/20 17:23:49;;;;;;;;;;;;;;;;;;5096685;28;19916;-67
2023/07/20 17:26:15;;;;;;;;;;;;;;;;;;5096357;28;20400;-67
2023/07/20 17:28:41;;;;;;;;;;;;;;;;;;5078468;28;19908;-67
2023/07/20 17:31:07;;;;;;;;;;;;;;;;;;5096908;28;19908;-69
2023/07/20 17:33:34;;;;;;;;;;;;;;;;;;5096116;28;19915;-66
2023/07/20 17:36:00;;;;;;;;;;;;;;;;;;5095987;28;19912;-66
2023/07/20 17:38:26;;;;;;;;;;;;;;;;;;5096166;28;19991;-67
2023/07/20 17:40:52;;;;;;;;;;;;;;;;;;5096377;28;19944;-68
2023/07/20 17:43:18;;;;;;;;;;;;;;;;;;5096882;28;19915;-69
2023/07/20 17:45:44;;;;;;;;;;;;;;;;;;5095879;28;19958;-67
2023/07/20 17:48:10;;;;;;;;;;;;;;;;;;5096295;28;19912;-67
2023/07/20 17:50:36;;;;;;;;;;;;;;;;;;5096283;28;19915;-67
2023/07/20 17:53:03;;;;;;;;;;;;;;;;;;5096198;28;20441;-67
2023/07/20 17:55:29;;;;;;;;;;;;;;;;;;5077999;28;19908;-67
2023/07/20 17:57:55;;;;;;;;;;;;;;;;;;5095928;28;20280;-67
2023/07/20 18:00:21;;;;;;;;;;;;;;;;;;5095644;28;19951;-67
2023/07/20 18:02:47;;;;;;;;;;;;;;;;;;5095998;28;19908;-67
2023/07/20 18:05:14;;;;;;;;;;;;;;;;;;5095488;28;19920;-67
2023/07/20 18:07:40;;;;;;;;;;;;;;;;;;5095442;28;19957;-67
2023/07/20 18:10:06;;;;;;;;;;;;;;;;;;5095813;28;20267;-67